Time;durP1;ratioP1;P1;durP2;ratioP2;P2;SDS_P1;SDS_P2;PMS_P1;PMS_P2;Temp;Humidity;BMP_temperature;BMP_pressure;BME280_temperature;BME280_humidity;BME280_pressure;Samples;Min_cycle;Max_cycle;Signal;HPM_P1;HPM_P2
2021/04/05 00:01:36;;;;;;;10.70;7.07;;;;;;;;;;5091219;28;20203;-67
2021/04/05 00:04:02;;;;;;;10.10;6.30;;;;;;;;;;5077038;28;20177;-67
2021/04/05 00:06:28;;;;;;;7.80;5.97;;;;;;;;;;5086829;28;20244;-67
2021/04/05 00:08:54;;;;;;;8.97;6.20;;;;;;;;;;5084206;28;20212;-67
2021/04/05 00:11:21;;;;;;;8.57;6.13;;;;;;;;;;5077497;28;20668;-67
2021/04/05 00:13:47;;;;;;;12.73;5.87;;;;;;;;;;5087170;28;20561;-67
2021/04/05 00:16:20;;;;;;;10.53;5.83;;;;;;;;;;5081369;28;20203;-67
2021/04/05 00:18:46;;;;;;;10.20;6.40;;;;;;;;;;5080621;28;20209;-67
2021/04/05 00:21:20;;;;;;;11.10;6.57;;;;;;;;;;5084708;28;20186;-67
2021/04/05 00:23:46;;;;;;;8.47;6.13;;;;;;;;;;5086688;28;20192;-67
2021/04/05 00:26:12;;;;;;;9.23;6.33;;;;;;;;;;5083318;28;20214;-67
2021/04/05 00:28:38;;;;;;;12.50;6.53;;;;;;;;;;5072395;28;20196;-68
2021/04/05 00:31:05;;;;;;;10.73;6.47;;;;;;;;;;5080623;28;20191;-67
2021/04/05 00:33:31;;;;;;;8.03;6.43;;;;;;;;;;5083775;28;20186;-67
2021/04/05 00:35:57;;;;;;;8.30;6.43;;;;;;;;;;5077748;28;20605;-67
2021/04/05 00:38:24;;;;;;;7.70;6.13;;;;;;;;;;5077681;28;20219;-67
2021/04/05 00:41:00;;;;;;;11.10;6.30;;;;;;;;;;5082981;28;20726;-67
2021/04/05 00:43:27;;;;;;;11.20;6.13;;;;;;;;;;5080311;28;20631;-67
2021/04/05 00:45:53;;;;;;;11.73;6.73;;;;;;;;;;5076159;28;20679;-67
2021/04/05 00:48:19;;;;;;;9.27;6.10;;;;;;;;;;5085817;28;20653;-67
2021/04/05 00:50:53;;;;;;;11.50;6.07;;;;;;;;;;5072358;28;20184;-67
2021/04/05 00:53:20;;;;;;;7.77;6.50;;;;;;;;;;5081452;28;20199;-67
2021/04/05 00:55:47;;;;;;;12.37;6.17;;;;;;;;;;5071444;28;20208;-67
2021/04/05 00:58:14;;;;;;;9.07;6.50;;;;;;;;;;5078061;28;20217;-68
2021/04/05 01:00:43;;;;;;;10.53;6.60;;;;;;;;;;5082187;28;20362;-67
2021/04/05 01:03:10;;;;;;;11.73;6.50;;;;;;;;;;5078282;28;20179;-68
2021/04/05 01:05:37;;;;;;;7.40;5.90;;;;;;;;;;5088898;28;20257;-67
2021/04/05 01:08:03;;;;;;;8.63;6.70;;;;;;;;;;5074447;28;20207;-68
2021/04/05 01:10:30;;;;;;;8.13;6.27;;;;;;;;;;5075548;28;20190;-66
2021/04/05 01:12:56;;;;;;;12.73;6.70;;;;;;;;;;5084794;28;20183;-65
2021/04/05 01:15:22;;;;;;;7.43;6.57;;;;;;;;;;5079727;28;20281;-66
2021/04/05 01:17:50;;;;;;;9.20;6.37;;;;;;;;;;5073025;28;20210;-67
2021/04/05 01:20:17;;;;;;;11.07;6.17;;;;;;;;;;5078500;28;20329;-67
2021/04/05 01:22:44;;;;;;;10.53;6.40;;;;;;;;;;5082733;28;20187;-67
2021/04/05 01:25:11;;;;;;;8.27;5.93;;;;;;;;;;5082808;28;20205;-67
2021/04/05 01:27:38;;;;;;;8.77;6.20;;;;;;;;;;5080030;28;20192;-67
2021/04/05 01:30:27;;;;;;;9.07;6.80;;;;;;;;;;5083650;28;20343;-67
2021/04/05 01:33:06;;;;;;;9.47;6.47;;;;;;;;;;5082171;28;20264;-67
2021/04/05 01:35:38;;;;;;;10.83;6.00;;;;;;;;;;5086005;28;20248;-67
2021/04/05 01:38:05;;;;;;;8.93;6.17;;;;;;;;;;5073668;28;20217;-66
2021/04/05 01:40:38;;;;;;;8.90;5.90;;;;;;;;;;5085493;28;20181;-66
2021/04/05 01:43:04;;;;;;;9.10;6.40;;;;;;;;;;5077723;28;20179;-66
2021/04/05 01:45:31;;;;;;;13.30;6.67;;;;;;;;;;5084247;28;20203;-67
2021/04/05 01:47:57;;;;;;;9.30;5.83;;;;;;;;;;5083275;28;20201;-67
2021/04/05 01:50:23;;;;;;;11.57;6.23;;;;;;;;;;5078593;28;20195;-66
2021/04/05 01:52:49;;;;;;;11.17;6.10;;;;;;;;;;5078394;28;20207;-67
2021/04/05 01:55:15;;;;;;;11.17;6.93;;;;;;;;;;5083464;28;20212;-67
2021/04/05 01:57:42;;;;;;;8.27;5.23;;;;;;;;;;5072946;28;20212;-67
2021/04/05 02:00:10;;;;;;;9.93;6.13;;;;;;;;;;5078784;28;20191;-67
2021/04/05 02:02:37;;;;;;;6.43;5.73;;;;;;;;;;5079107;28;20205;-67
2021/04/05 02:05:05;;;;;;;10.03;6.00;;;;;;;;;;5076753;28;20233;-67
2021/04/05 02:07:31;;;;;;;7.77;5.53;;;;;;;;;;5075339;28;20262;-67
2021/04/05 02:09:57;;;;;;;9.47;6.13;;;;;;;;;;5079581;28;20221;-67
2021/04/05 02:12:23;;;;;;;7.97;6.03;;;;;;;;;;5081339;28;20228;-67
2021/04/05 02:14:49;;;;;;;9.87;6.47;;;;;;;;;;5077724;28;20632;-67
2021/04/05 02:17:15;;;;;;;7.70;5.90;;;;;;;;;;5081101;28;20222;-67
2021/04/05 02:19:41;;;;;;;10.77;5.97;;;;;;;;;;5091048;28;20243;-67
2021/04/05 02:22:08;;;;;;;9.73;5.80;;;;;;;;;;5078596;28;20231;-68
2021/04/05 02:24:35;;;;;;;8.67;6.20;;;;;;;;;;5080255;28;20210;-66
2021/04/05 02:27:02;;;;;;;10.60;6.60;;;;;;;;;;5078863;28;20197;-65
2021/04/05 02:29:28;;;;;;;8.50;6.17;;;;;;;;;;5081460;28;20812;-68
2021/04/05 02:31:54;;;;;;;12.37;6.33;;;;;;;;;;5085015;28;20189;-68
2021/04/05 02:34:20;;;;;;;11.73;6.07;;;;;;;;;;5080181;28;20187;-66
2021/04/05 02:36:46;;;;;;;9.57;5.83;;;;;;;;;;5083099;28;20239;-66
2021/04/05 02:39:13;;;;;;;10.07;6.10;;;;;;;;;;5080787;28;20201;-68
2021/04/05 02:41:43;;;;;;;9.77;6.17;;;;;;;;;;5087655;28;20189;-67
2021/04/05 02:44:09;;;;;;;8.63;6.33;;;;;;;;;;5081002;28;20541;-68
2021/04/05 02:46:36;;;;;;;10.30;6.93;;;;;;;;;;5083369;28;20241;-67
2021/04/05 02:49:05;;;;;;;12.37;5.80;;;;;;;;;;5085614;28;20217;-67
2021/04/05 02:51:31;;;;;;;10.27;6.30;;;;;;;;;;5088028;28;20187;-68
2021/04/05 02:53:58;;;;;;;8.93;5.90;;;;;;;;;;5088373;28;20250;-66
2021/04/05 02:56:25;;;;;;;9.90;6.50;;;;;;;;;;5086485;28;20207;-66
2021/04/05 02:58:52;;;;;;;11.43;6.40;;;;;;;;;;5079155;28;20243;-66
2021/04/05 03:01:18;;;;;;;13.03;6.07;;;;;;;;;;5075187;28;20560;-67
2021/04/05 03:03:45;;;;;;;7.53;5.70;;;;;;;;;;5079348;28;20188;-68
2021/04/05 03:06:16;;;;;;;10.53;7.13;;;;;;;;;;5077280;28;20204;-66
2021/04/05 03:08:42;;;;;;;12.60;6.17;;;;;;;;;;5085728;28;20680;-66
2021/04/05 03:11:08;;;;;;;9.37;6.07;;;;;;;;;;5080559;28;20914;-66
2021/04/05 03:13:37;;;;;;;11.90;6.43;;;;;;;;;;5078951;28;20667;-69
2021/04/05 03:16:07;;;;;;;8.37;6.20;;;;;;;;;;5086176;28;20213;-66
2021/04/05 03:18:33;;;;;;;10.13;6.67;;;;;;;;;;5085749;28;20589;-67
2021/04/05 03:20:59;;;;;;;13.33;7.23;;;;;;;;;;5095358;28;20186;-66
2021/04/05 03:23:25;;;;;;;8.47;6.37;;;;;;;;;;5106584;28;20176;-66
2021/04/05 03:25:51;;;;;;;9.03;6.17;;;;;;;;;;5084413;28;20219;-67
2021/04/05 03:28:18;;;;;;;8.93;6.07;;;;;;;;;;5079004;28;20208;-66
2021/04/05 03:30:45;;;;;;;8.70;6.13;;;;;;;;;;5084664;28;20242;-66
2021/04/05 03:33:14;;;;;;;10.40;6.67;;;;;;;;;;5083329;28;20536;-67
2021/04/05 03:35:42;;;;;;;9.30;6.50;;;;;;;;;;5081309;28;20202;-66
2021/04/05 03:38:09;;;;;;;12.00;6.43;;;;;;;;;;5084838;28;20972;-66
2021/04/05 03:40:36;;;;;;;12.77;5.77;;;;;;;;;;5083968;28;20183;-66
2021/04/05 03:43:04;;;;;;;8.53;6.37;;;;;;;;;;5089940;28;20182;-66
2021/04/05 03:45:37;;;;;;;11.17;6.53;;;;;;;;;;5079959;28;20212;-66
2021/04/05 03:48:21;;;;;;;10.40;6.20;;;;;;;;;;5079966;28;20194;-67
2021/04/05 03:50:50;;;;;;;10.13;6.70;;;;;;;;;;5078419;28;20566;-68
2021/04/05 03:53:27;;;;;;;8.17;5.77;;;;;;;;;;5086517;28;20552;-68
2021/04/05 03:55:57;;;;;;;9.40;6.03;;;;;;;;;;5081315;28;20722;-66
2021/04/05 03:58:24;;;;;;;9.47;6.23;;;;;;;;;;5077362;28;20250;-67
2021/04/05 04:00:50;;;;;;;14.53;7.03;;;;;;;;;;5079267;28;20736;-67
2021/04/05 04:03:19;;;;;;;8.70;6.37;;;;;;;;;;5083321;28;20191;-67
2021/04/05 04:05:52;;;;;;;11.47;6.47;;;;;;;;;;5089697;28;20195;-67
2021/04/05 04:08:31;;;;;;;8.57;5.60;;;;;;;;;;5079701;28;20192;-65
2021/04/05 04:11:00;;;;;;;6.47;5.30;;;;;;;;;;5078156;28;20181;-65
2021/04/05 04:13:28;;;;;;;9.50;5.90;;;;;;;;;;5082644;28;20215;-67
2021/04/05 04:15:54;;;;;;;15.20;6.73;;;;;;;;;;5083290;28;20211;-66
2021/04/05 04:18:20;;;;;;;8.80;6.57;;;;;;;;;;5081278;28;20216;-67
2021/04/05 04:20:46;;;;;;;9.80;6.27;;;;;;;;;;5084467;28;20236;-67
2021/04/05 04:23:14;;;;;;;7.23;6.13;;;;;;;;;;5076471;28;20196;-67
2021/04/05 04:25:40;;;;;;;9.13;5.80;;;;;;;;;;5077514;28;20718;-67
2021/04/05 04:28:06;;;;;;;10.13;5.97;;;;;;;;;;5085415;28;20682;-66
2021/04/05 04:30:33;;;;;;;10.70;6.30;;;;;;;;;;5073710;28;20200;-67
2021/04/05 04:33:03;;;;;;;6.27;5.67;;;;;;;;;;5080198;28;20242;-66
2021/04/05 04:35:29;;;;;;;10.93;5.43;;;;;;;;;;5080101;28;20272;-67
2021/04/05 04:37:55;;;;;;;8.53;5.33;;;;;;;;;;5074744;28;20217;-67
2021/04/05 04:40:28;;;;;;;10.53;5.50;;;;;;;;;;5079173;28;20188;-67
2021/04/05 04:42:58;;;;;;;14.40;5.83;;;;;;;;;;5077810;28;20189;-66
2021/04/05 04:45:24;;;;;;;8.50;5.90;;;;;;;;;;5076975;28;20203;-67
2021/04/05 04:47:51;;;;;;;8.93;6.07;;;;;;;;;;5075003;28;20525;-68
2021/04/05 04:50:18;;;;;;;11.03;5.70;;;;;;;;;;5077758;28;20389;-66
2021/04/05 04:52:44;;;;;;;11.97;5.80;;;;;;;;;;5079951;28;20183;-66
2021/04/05 04:55:10;;;;;;;8.33;5.57;;;;;;;;;;5080848;28;20205;-67
2021/04/05 04:57:37;;;;;;;9.57;6.50;;;;;;;;;;5087123;28;20752;-66
2021/04/05 05:00:07;;;;;;;8.00;5.93;;;;;;;;;;5083563;28;20295;-66
2021/04/05 05:02:34;;;;;;;9.30;5.83;;;;;;;;;;5085414;28;20227;-66
2021/04/05 05:05:01;;;;;;;8.60;5.87;;;;;;;;;;5089137;28;20206;-67
2021/04/05 05:07:28;;;;;;;7.83;5.67;;;;;;;;;;5091562;28;20225;-68
2021/04/05 05:09:54;;;;;;;8.70;5.67;;;;;;;;;;5089103;28;20199;-67
2021/04/05 05:12:20;;;;;;;9.23;5.43;;;;;;;;;;5092952;28;20239;-66
2021/04/05 05:14:47;;;;;;;7.83;5.43;;;;;;;;;;5089064;28;20209;-67
2021/04/05 05:17:13;;;;;;;8.97;5.40;;;;;;;;;;5089450;28;20215;-68
2021/04/05 05:19:39;;;;;;;10.60;6.30;;;;;;;;;;5091529;28;20636;-66
2021/04/05 05:22:07;;;;;;;8.83;5.60;;;;;;;;;;5084126;28;20622;-67
2021/04/05 05:24:33;;;;;;;8.73;5.40;;;;;;;;;;5088513;28;20213;-67
2021/04/05 05:27:01;;;;;;;9.23;4.93;;;;;;;;;;5081098;28;20217;-65
2021/04/05 05:29:27;;;;;;;9.10;5.23;;;;;;;;;;5082331;28;20267;-66
2021/04/05 05:31:53;;;;;;;10.13;5.17;;;;;;;;;;5084844;28;20184;-66
2021/04/05 05:34:21;;;;;;;9.70;5.20;;;;;;;;;;5085674;28;20186;-68
2021/04/05 05:36:47;;;;;;;10.50;4.90;;;;;;;;;;5081668;28;20194;-67
2021/04/05 05:39:14;;;;;;;8.10;4.93;;;;;;;;;;5079981;28;20206;-67
2021/04/05 05:41:55;;;;;;;8.00;4.50;;;;;;;;;;5081598;28;20179;-67
2021/04/05 05:44:40;;;;;;;8.87;5.23;;;;;;;;;;5082798;28;20213;-66
2021/04/05 05:47:09;;;;;;;11.70;5.17;;;;;;;;;;5080985;28;20174;-67
2021/04/05 05:49:38;;;;;;;11.97;5.37;;;;;;;;;;5078396;28;20191;-67
2021/04/05 05:52:25;;;;;;;8.43;4.63;;;;;;;;;;5083824;28;20179;-67
2021/04/05 05:55:05;;;;;;;10.73;4.93;;;;;;;;;;5080251;28;20314;-66
2021/04/05 05:57:44;;;;;;;8.67;4.83;;;;;;;;;;5086585;28;20240;-67
2021/04/05 06:00:17;;;;;;;7.00;4.47;;;;;;;;;;5078894;28;20180;-67
2021/04/05 06:02:48;;;;;;;10.30;4.47;;;;;;;;;;5078558;28;20176;-68
2021/04/05 06:05:32;;;;;;;8.80;5.20;;;;;;;;;;5077197;28;20249;-65
2021/04/05 06:07:58;;;;;;;10.07;4.63;;;;;;;;;;5078436;28;20597;-65
2021/04/05 06:10:43;;;;;;;6.50;4.90;;;;;;;;;;5081258;28;20193;-66
2021/04/05 06:13:12;;;;;;;13.27;5.60;;;;;;;;;;5074673;28;20260;-68
2021/04/05 06:15:47;;;;;;;7.03;5.23;;;;;;;;;;5076208;28;20576;-69
2021/04/05 06:18:16;;;;;;;11.50;5.20;;;;;;;;;;5074313;28;20221;-66
2021/04/05 06:20:47;;;;;;;10.20;5.77;;;;;;;;;;5077546;28;20190;-67
2021/04/05 06:23:23;;;;;;;11.90;6.57;;;;;;;;;;5073184;28;20255;-68
2021/04/05 06:26:14;;;;;;;6.70;5.13;;;;;;;;;;5072119;28;20525;-68
2021/04/05 06:28:45;;;;;;;11.50;4.90;;;;;;;;;;5074121;28;20184;-68
2021/04/05 06:31:32;;;;;;;7.47;4.70;;;;;;;;;;5076469;28;20183;-68
2021/04/05 06:33:59;;;;;;;7.00;4.93;;;;;;;;;;5079984;28;20204;-66
2021/04/05 06:36:38;;;;;;;7.87;5.30;;;;;;;;;;5069624;28;20292;-66
2021/04/05 06:39:08;;;;;;;7.63;5.30;;;;;;;;;;5078959;28;20296;-66
2021/04/05 06:41:35;;;;;;;9.03;5.07;;;;;;;;;;5078094;28;20279;-65
2021/04/05 06:44:11;;;;;;;9.93;4.70;;;;;;;;;;5077995;28;20720;-67
2021/04/05 06:46:56;;;;;;;6.07;4.80;;;;;;;;;;5074477;28;20203;-66
2021/04/05 06:49:40;;;;;;;8.20;4.57;;;;;;;;;;5077271;28;20187;-66
2021/04/05 06:52:09;;;;;;;7.17;4.57;;;;;;;;;;5071931;28;20533;-67
2021/04/05 06:54:51;;;;;;;9.03;5.70;;;;;;;;;;5083613;28;20275;-67
2021/04/05 06:57:22;;;;;;;6.53;4.70;;;;;;;;;;5078002;28;20686;-66
2021/04/05 06:59:58;;;;;;;7.03;4.47;;;;;;;;;;5073309;28;20265;-67
2021/04/05 07:02:27;;;;;;;9.63;4.73;;;;;;;;;;5085592;28;20174;-67
2021/04/05 07:05:12;;;;;;;9.83;4.83;;;;;;;;;;5083403;28;20670;-67
2021/04/05 07:08:01;;;;;;;8.43;4.93;;;;;;;;;;5088357;28;20178;-67
2021/04/05 07:10:32;;;;;;;8.87;5.50;;;;;;;;;;5094013;28;20221;-67
2021/04/05 07:13:06;;;;;;;10.17;5.20;;;;;;;;;;5083874;28;20326;-67
2021/04/05 07:15:42;;;;;;;7.03;5.10;;;;;;;;;;5086515;28;20200;-67
2021/04/05 07:18:27;;;;;;;12.33;6.13;;;;;;;;;;5081067;28;20222;-67
2021/04/05 07:21:12;;;;;;;14.37;4.83;;;;;;;;;;5074290;28;20244;-67
2021/04/05 07:23:48;;;;;;;9.03;4.50;;;;;;;;;;5087099;28;21000;-67
2021/04/05 07:26:25;;;;;;;9.27;5.50;;;;;;;;;;5083304;28;20240;-66
2021/04/05 07:29:12;;;;;;;8.47;5.17;;;;;;;;;;5085424;28;20257;-67
2021/04/05 07:31:56;;;;;;;10.00;5.53;;;;;;;;;;5081477;28;20206;-66
2021/04/05 07:34:33;;;;;;;9.50;4.77;;;;;;;;;;5080653;28;20193;-67
2021/04/05 07:37:14;;;;;;;7.07;4.87;;;;;;;;;;5084772;28;20186;-66
2021/04/05 07:39:49;;;;;;;11.90;5.17;;;;;;;;;;5077427;28;20288;-69
2021/04/05 07:42:22;;;;;;;9.03;5.30;;;;;;;;;;5079100;28;20186;-65
2021/04/05 07:45:07;;;;;;;11.23;5.47;;;;;;;;;;5090602;28;20696;-68
2021/04/05 07:47:36;;;;;;;6.17;4.70;;;;;;;;;;5075605;28;20202;-66
2021/04/05 07:50:02;;;;;;;9.40;4.77;;;;;;;;;;5078454;28;20608;-66
2021/04/05 07:52:33;;;;;;;10.40;4.93;;;;;;;;;;5087632;28;20223;-66
2021/04/05 07:55:00;;;;;;;6.70;5.07;;;;;;;;;;5082928;28;20205;-67
2021/04/05 07:57:33;;;;;;;7.73;5.40;;;;;;;;;;5075680;28;20217;-67
2021/04/05 08:00:08;;;;;;;8.93;5.47;;;;;;;;;;5081227;28;20182;-67
2021/04/05 08:02:53;;;;;;;10.83;5.70;;;;;;;;;;5077834;28;20185;-67
2021/04/05 08:05:37;;;;;;;9.77;6.03;;;;;;;;;;5087308;28;20202;-68
2021/04/05 08:08:26;;;;;;;7.77;4.80;;;;;;;;;;5088134;28;20253;-66
2021/04/05 08:11:06;;;;;;;8.90;5.30;;;;;;;;;;5076927;28;20876;-68
2021/04/05 08:13:47;;;;;;;9.77;5.45;;;;;;;;;;5073685;28;20203;-67
2021/04/05 08:16:13;;;;;;;6.88;4.80;;;;;;;;;;5083412;28;20339;-67
2021/04/05 08:18:39;;;;;;;10.10;5.40;;;;;;;;;;5088509;28;20247;-69
2021/04/05 08:21:18;;;;;;;9.50;5.10;;;;;;;;;;5086132;28;20177;-67
2021/04/05 08:23:57;;;;;;;9.38;5.93;;;;;;;;;;5085965;28;20719;-66
2021/04/05 08:26:29;;;;;;;11.13;5.50;;;;;;;;;;5081467;28;20238;-67
2021/04/05 08:29:21;;;;;;;10.35;5.70;;;;;;;;;;5082739;28;20175;-67
2021/04/05 08:31:47;;;;;;;10.98;5.57;;;;;;;;;;5085014;28;20205;-67
2021/04/05 08:34:16;;;;;;;9.05;5.25;;;;;;;;;;5084618;28;20187;-67
2021/04/05 08:36:42;;;;;;;13.60;4.93;;;;;;;;;;5081307;28;20202;-66
2021/04/05 08:39:18;;;;;;;14.35;5.10;;;;;;;;;;5081670;28;20267;-68
2021/04/05 08:41:49;;;;;;;20.83;5.20;;;;;;;;;;5082734;28;20182;-64
2021/04/05 08:44:22;;;;;;;10.90;4.22;;;;;;;;;;5080653;28;20599;-66
2021/04/05 08:46:49;;;;;;;9.15;4.35;;;;;;;;;;5082963;28;20299;-66
2021/04/05 08:49:20;;;;;;;8.07;4.40;;;;;;;;;;5087401;28;20182;-67
2021/04/05 08:51:48;;;;;;;10.25;4.28;;;;;;;;;;5087203;28;20182;-66
2021/04/05 08:54:15;;;;;;;11.38;4.82;;;;;;;;;;5088548;28;20182;-66
2021/04/05 08:56:47;;;;;;;9.98;4.75;;;;;;;;;;5091972;28;20214;-65
2021/04/05 08:59:18;;;;;;;10.68;4.43;;;;;;;;;;5085609;28;20259;-65
2021/04/05 09:01:50;;;;;;;16.23;4.32;;;;;;;;;;5080935;28;20666;-66
2021/04/05 09:04:20;;;;;;;9.18;4.22;;;;;;;;;;5086619;28;20214;-66
2021/04/05 09:06:52;;;;;;;9.00;4.20;;;;;;;;;;5085635;28;20625;-66
2021/04/05 09:09:20;;;;;;;12.13;3.83;;;;;;;;;;5081418;28;20197;-67
2021/04/05 09:11:46;;;;;;;7.60;3.97;;;;;;;;;;5084684;28;20190;-66
2021/04/05 09:14:12;;;;;;;9.37;4.10;;;;;;;;;;5086216;28;20186;-67
2021/04/05 09:16:57;;;;;;;13.77;3.73;;;;;;;;;;5083396;28;20210;-66
2021/04/05 09:19:50;;;;;;;14.83;3.87;;;;;;;;;;5085005;28;20712;-66
2021/04/05 09:22:34;;;;;;;9.63;3.73;;;;;;;;;;5073874;28;20211;-65
2021/04/05 09:25:18;;;;;;;12.20;4.30;;;;;;;;;;5087287;28;20217;-68
2021/04/05 09:27:50;;;;;;;12.00;3.77;;;;;;;;;;5080504;28;20196;-66
2021/04/05 09:30:28;;;;;;;9.07;3.67;;;;;;;;;;5079620;28;20790;-67
2021/04/05 09:33:05;;;;;;;8.63;3.30;;;;;;;;;;5078541;28;20458;-66
2021/04/05 09:35:34;;;;;;;9.97;3.97;;;;;;;;;;5080615;28;20212;-67
2021/04/05 09:38:19;;;;;;;7.17;3.63;;;;;;;;;;5077000;28;20217;-68
2021/04/05 09:41:04;;;;;;;10.00;4.70;;;;;;;;;;5082337;28;20178;-66
2021/04/05 09:43:55;;;;;;;7.50;4.00;;;;;;;;;;5083817;28;20185;-66
2021/04/05 09:46:27;;;;;;;10.00;3.90;;;;;;;;;;5084585;28;20206;-66
2021/04/05 09:48:59;;;;;;;13.47;4.60;;;;;;;;;;5084219;28;20555;-69
2021/04/05 09:51:28;;;;;;;9.70;4.20;;;;;;;;;;5081796;28;20186;-67
2021/04/05 09:53:57;;;;;;;7.53;3.87;;;;;;;;;;5087819;28;20182;-67
2021/04/05 09:56:25;;;;;;;8.70;4.27;;;;;;;;;;5072726;28;20211;-66
2021/04/05 09:58:56;;;;;;;8.40;4.07;;;;;;;;;;5085146;28;20217;-67
2021/04/05 10:01:25;;;;;;;11.23;4.00;;;;;;;;;;5081698;28;20212;-67
2021/04/05 10:03:52;;;;;;;8.67;4.53;;;;;;;;;;5084895;28;20183;-67
2021/04/05 10:06:20;;;;;;;6.73;3.80;;;;;;;;;;5083495;28;20275;-67
2021/04/05 10:08:49;;;;;;;14.87;4.17;;;;;;;;;;5085574;28;20181;-67
2021/04/05 10:11:15;;;;;;;8.50;4.30;;;;;;;;;;5078613;28;20664;-68
2021/04/05 10:13:55;;;;;;;7.03;3.93;;;;;;;;;;5076744;28;20183;-67
2021/04/05 10:16:23;;;;;;;8.03;4.20;;;;;;;;;;5074897;28;20210;-66
2021/04/05 10:18:50;;;;;;;11.50;5.00;;;;;;;;;;5072748;28;20302;-67
2021/04/05 10:21:17;;;;;;;7.77;4.33;;;;;;;;;;5081394;28;20231;-66
2021/04/05 10:23:44;;;;;;;8.17;4.50;;;;;;;;;;5083307;28;20206;-66
2021/04/05 10:26:13;;;;;;;8.07;4.70;;;;;;;;;;5077533;28;20702;-67
2021/04/05 10:28:39;;;;;;;8.80;4.67;;;;;;;;;;5079657;28;20182;-68
2021/04/05 10:31:07;;;;;;;10.67;4.50;;;;;;;;;;5076343;28;20194;-68
2021/04/05 10:33:35;;;;;;;11.83;5.63;;;;;;;;;;5062496;28;20301;-68
2021/04/05 10:36:06;;;;;;;12.10;5.30;;;;;;;;;;5080239;28;20221;-67
2021/04/05 10:38:32;;;;;;;10.97;5.23;;;;;;;;;;5078243;28;20280;-67
2021/04/05 10:40:58;;;;;;;9.60;5.13;;;;;;;;;;5078868;28;20187;-68
2021/04/05 10:43:33;;;;;;;6.57;4.70;;;;;;;;;;5078407;28;20187;-66
2021/04/05 10:46:00;;;;;;;10.10;5.50;;;;;;;;;;5084750;28;20201;-67
2021/04/05 10:48:45;;;;;;;6.20;4.63;;;;;;;;;;5083021;28;20182;-67
2021/04/05 10:51:15;;;;;;;10.80;5.20;;;;;;;;;;5089563;28;20495;-67
2021/04/05 10:53:43;;;;;;;13.10;5.23;;;;;;;;;;5077423;28;20261;-68
2021/04/05 10:56:10;;;;;;;8.33;4.70;;;;;;;;;;5075879;28;20594;-67
2021/04/05 10:58:42;;;;;;;8.50;4.47;;;;;;;;;;5079382;28;20289;-67
2021/04/05 11:01:08;;;;;;;8.97;4.90;;;;;;;;;;5085485;28;20186;-67
2021/04/05 11:03:38;;;;;;;11.03;6.23;;;;;;;;;;5096395;28;20183;-67
2021/04/05 11:06:07;;;;;;;8.47;5.40;;;;;;;;;;5090574;28;20225;-67
2021/04/05 11:08:34;;;;;;;9.27;4.80;;;;;;;;;;5090838;28;20247;-67
2021/04/05 11:11:02;;;;;;;11.43;5.70;;;;;;;;;;5078058;28;20186;-67
2021/04/05 11:13:28;;;;;;;11.27;5.07;;;;;;;;;;5078183;28;20195;-69
2021/04/05 11:15:55;;;;;;;9.07;4.33;;;;;;;;;;5087709;28;20206;-68
2021/04/05 11:18:24;;;;;;;11.30;5.23;;;;;;;;;;5081783;28;20218;-69
2021/04/05 11:20:51;;;;;;;8.80;5.73;;;;;;;;;;5081494;28;20220;-68
2021/04/05 11:23:18;;;;;;;7.13;4.63;;;;;;;;;;5090671;28;20244;-68
2021/04/05 11:25:46;;;;;;;7.70;4.70;;;;;;;;;;5079547;28;20227;-66
2021/04/05 11:28:21;;;;;;;9.77;5.30;;;;;;;;;;5086164;28;20817;-68
2021/04/05 11:30:55;;;;;;;7.23;4.60;;;;;;;;;;5084855;28;20182;-68
2021/04/05 11:33:25;;;;;;;7.87;4.10;;;;;;;;;;5079243;28;20273;-68
2021/04/05 11:35:52;;;;;;;6.83;4.70;;;;;;;;;;5086746;28;20206;-69
2021/04/05 11:38:19;;;;;;;8.17;4.83;;;;;;;;;;5076036;28;20266;-68
2021/04/05 11:40:47;;;;;;;8.13;4.70;;;;;;;;;;5089295;28;20198;-69
2021/04/05 11:43:15;;;;;;;8.93;4.37;;;;;;;;;;5080650;28;20206;-69
2021/04/05 11:45:42;;;;;;;7.40;4.77;;;;;;;;;;5088034;28;20672;-68
2021/04/05 11:48:20;;;;;;;8.63;4.53;;;;;;;;;;5078177;28;20208;-68
2021/04/05 11:50:46;;;;;;;6.20;3.67;;;;;;;;;;5076135;28;20175;-69
2021/04/05 11:53:18;;;;;;;5.63;3.53;;;;;;;;;;5077818;28;20278;-68
2021/04/05 11:55:46;;;;;;;8.23;4.40;;;;;;;;;;5086826;28;20206;-68
2021/04/05 11:58:35;;;;;;;8.33;3.90;;;;;;;;;;5078179;28;20218;-68
2021/04/05 12:01:03;;;;;;;5.03;3.60;;;;;;;;;;5082747;28;20225;-67
2021/04/05 12:03:34;;;;;;;9.83;4.30;;;;;;;;;;5089718;28;20182;-67
2021/04/05 12:06:00;;;;;;;8.00;4.60;;;;;;;;;;5079108;28;20194;-67
2021/04/05 12:08:31;;;;;;;9.20;3.87;;;;;;;;;;5086051;28;20246;-68
2021/04/05 12:11:02;;;;;;;9.77;4.90;;;;;;;;;;5087358;28;20209;-68
2021/04/05 12:13:31;;;;;;;8.90;4.70;;;;;;;;;;5085296;28;20176;-68
2021/04/05 12:15:58;;;;;;;8.27;4.77;;;;;;;;;;5083348;28;20213;-67
2021/04/05 12:18:25;;;;;;;7.47;4.40;;;;;;;;;;5084600;28;20201;-68
2021/04/05 12:20:59;;;;;;;11.97;5.10;;;;;;;;;;5077444;28;20190;-67
2021/04/05 12:23:25;;;;;;;8.33;4.17;;;;;;;;;;5084444;28;20231;-67
2021/04/05 12:25:52;;;;;;;11.07;5.20;;;;;;;;;;5083350;28;20309;-68
2021/04/05 12:28:18;;;;;;;10.70;5.63;;;;;;;;;;5078346;28;20243;-69
2021/04/05 12:30:45;;;;;;;12.85;5.65;;;;;;;;;;5081979;28;20201;-69
2021/04/05 12:33:15;;;;;;;13.35;6.95;;;;;;;;;;5075657;28;20187;-67
2021/04/05 12:35:42;;;;;;;9.20;5.75;;;;;;;;;;5076299;28;20646;-69
2021/04/05 12:38:08;;;;;;;10.23;5.25;;;;;;;;;;5085874;28;20293;-69
2021/04/05 12:40:36;;;;;;;9.23;5.87;;;;;;;;;;5079494;28;20179;-69
2021/04/05 12:43:05;;;;;;;11.50;6.10;;;;;;;;;;5082416;28;20189;-67
2021/04/05 12:45:33;;;;;;;11.40;6.57;;;;;;;;;;5082317;28;20828;-68
2021/04/05 12:47:59;;;;;;;12.20;5.83;;;;;;;;;;5076578;28;20523;-67
2021/04/05 12:50:27;;;;;;;11.47;6.97;;;;;;;;;;5076870;28;20183;-67
2021/04/05 12:53:02;;;;;;;9.97;7.07;;;;;;;;;;5072104;28;20183;-68
2021/04/05 12:55:28;;;;;;;13.67;6.77;;;;;;;;;;5081217;28;20769;-68
2021/04/05 12:57:56;;;;;;;12.40;7.27;;;;;;;;;;5079003;28;20202;-68
2021/04/05 13:00:22;;;;;;;10.97;7.10;;;;;;;;;;5084717;28;20617;-67
2021/04/05 13:03:05;;;;;;;14.73;7.73;;;;;;;;;;5077752;28;20240;-67
2021/04/05 13:05:34;;;;;;;13.07;7.77;;;;;;;;;;5077586;28;20202;-67
2021/04/05 13:07:59;;;;;;;16.03;8.20;;;;;;;;;;5085110;28;20182;-68
2021/04/05 13:10:26;;;;;;;13.93;7.67;;;;;;;;;;5087944;28;20248;-68
2021/04/05 13:12:57;;;;;;;15.87;7.67;;;;;;;;;;5080179;28;20182;-67
2021/04/05 13:15:28;;;;;;;12.43;7.23;;;;;;;;;;5079626;28;20207;-68
2021/04/05 13:17:55;;;;;;;13.33;8.27;;;;;;;;;;5080711;28;20280;-67
2021/04/05 13:20:22;;;;;;;13.53;7.37;;;;;;;;;;5079386;28;20281;-67
2021/04/05 13:22:54;;;;;;;12.90;8.37;;;;;;;;;;5081420;28;20251;-67
2021/04/05 13:25:32;;;;;;;11.83;8.60;;;;;;;;;;5076254;28;20225;-67
2021/04/05 13:27:59;;;;;;;13.60;8.97;;;;;;;;;;5082890;28;20534;-67
2021/04/05 13:30:30;;;;;;;17.00;8.57;;;;;;;;;;5083110;28;20324;-67
2021/04/05 13:32:56;;;;;;;13.87;8.53;;;;;;;;;;5081539;28;20202;-66
2021/04/05 13:35:23;;;;;;;16.77;8.40;;;;;;;;;;5076922;28;20209;-69
2021/04/05 13:37:56;;;;;;;12.97;8.23;;;;;;;;;;5080616;28;20681;-66
2021/04/05 13:40:23;;;;;;;18.00;8.57;;;;;;;;;;5086914;28;20195;-66
2021/04/05 13:42:50;;;;;;;19.27;9.60;;;;;;;;;;5082658;28;20269;-67
2021/04/05 13:45:17;;;;;;;17.90;9.70;;;;;;;;;;5083458;28;20701;-67
2021/04/05 13:47:50;;;;;;;15.03;9.30;;;;;;;;;;5074108;28;20681;-68
2021/04/05 13:50:18;;;;;;;16.67;10.50;;;;;;;;;;5074964;28;20193;-67
2021/04/05 13:52:51;;;;;;;18.97;10.10;;;;;;;;;;5078497;28;20661;-68
2021/04/05 13:55:22;;;;;;;14.17;8.83;;;;;;;;;;5074817;28;20233;-67
2021/04/05 13:57:50;;;;;;;16.33;9.77;;;;;;;;;;5076594;28;20210;-66
2021/04/05 14:00:30;;;;;;;12.90;9.07;;;;;;;;;;5076437;28;20206;-68
2021/04/05 14:02:56;;;;;;;14.80;8.77;;;;;;;;;;5075660;28;20258;-67
2021/04/05 14:05:25;;;;;;;11.63;8.63;;;;;;;;;;5078051;28;20294;-67
2021/04/05 14:07:51;;;;;;;17.30;9.00;;;;;;;;;;5071388;28;20652;-67
2021/04/05 14:10:22;;;;;;;14.30;8.90;;;;;;;;;;5083042;28;20669;-68
2021/04/05 14:12:48;;;;;;;16.70;8.50;;;;;;;;;;5079470;28;20201;-68
2021/04/05 14:15:15;;;;;;;16.43;9.07;;;;;;;;;;5073271;28;20207;-67
2021/04/05 14:17:44;;;;;;;14.30;8.83;;;;;;;;;;5080159;28;20217;-67
2021/04/05 14:20:13;;;;;;;13.27;8.00;;;;;;;;;;5083983;28;20740;-67
2021/04/05 14:22:42;;;;;;;16.57;8.27;;;;;;;;;;5079131;28;20186;-66
2021/04/05 14:25:25;;;;;;;18.13;8.67;;;;;;;;;;5078467;28;20214;-68
2021/04/05 14:27:55;;;;;;;14.53;8.50;;;;;;;;;;5081899;28;20274;-66
2021/04/05 14:30:27;;;;;;;16.03;9.07;;;;;;;;;;5078593;28;20605;-67
2021/04/05 14:32:58;;;;;;;12.70;8.07;;;;;;;;;;5082500;28;20558;-66
2021/04/05 14:35:27;;;;;;;24.47;9.00;;;;;;;;;;5086964;28;20268;-67
2021/04/05 14:37:55;;;;;;;21.37;9.33;;;;;;;;;;5078133;28;20206;-67
2021/04/05 14:40:22;;;;;;;23.03;8.70;;;;;;;;;;5079799;28;20197;-67
2021/04/05 14:42:59;;;;;;;16.13;7.77;;;;;;;;;;5083796;28;20210;-68
2021/04/05 14:45:25;;;;;;;15.13;8.53;;;;;;;;;;5087759;28;20242;-67
2021/04/05 14:47:54;;;;;;;14.83;8.50;;;;;;;;;;5081991;28;20186;-67
2021/04/05 14:50:26;;;;;;;10.97;7.83;;;;;;;;;;5074741;28;20321;-66
2021/04/05 14:53:18;;;;;;;15.23;9.13;;;;;;;;;;5086028;28;20187;-68
2021/04/05 14:55:49;;;;;;;14.37;8.50;;;;;;;;;;5072793;28;20210;-66